Flight Track Log - Related Links

Times and Time Zones

All times are in EDT time to prevent confusion due to time zone crossing. See the EZY2759 flight status page for this flight to view local times or setup timezone preferences in your user account.

Time Position Orientation Groundspeed Altitude Reporting Facility
EDT Latitude Longitude Course Direction KTS MPH feet Rate Location/Type
Mon 12:41:00 AM 45.0927 7.8131 230° Southwest  Level Estimated
Mon 12:42:00 AM 45.0435 7.7308 230° Southwest  Level Estimated
Mon 12:43:00 AM 44.9942 7.6486 230° Southwest  Level Estimated
Mon 12:44:00 AM 44.9448 7.5666 230° Southwest  Level Estimated
Mon 12:45:00 AM 44.8954 7.4847 230° Southwest  Level Estimated
Mon 12:46:00 AM 44.8459 7.4029 230° Southwest  Level Estimated
Mon 12:47:00 AM 44.7963 7.3213 229° Southwest  Level Estimated
Mon 12:48:00 AM 44.7467 7.2399 229° Southwest  Level Estimated
Mon 12:49:00 AM 44.6970 7.1585 229° Southwest  Level Estimated
Mon 12:50:00 AM 44.6473 7.0773 229° Southwest  Level Estimated
Mon 12:51:00 AM 44.5975 6.9963 229° Southwest  Level Estimated
Mon 12:52:00 AM 44.5477 6.9153 229° Southwest  Level Estimated
Mon 12:53:00 AM 44.4978 6.8345 229° Southwest  Level Estimated
Mon 12:54:00 AM 44.4478 6.7539 229° Southwest  Level Estimated
Mon 12:55:00 AM 44.3926 6.6651 229° Southwest  Level Estimated
Mon 12:56:00 AM 44.3374 6.5764 229° Southwest  Level Estimated
Mon 12:57:00 AM 44.2820 6.4878 229° Southwest  Level Estimated
Mon 12:58:00 AM 44.2266 6.3995 229° Southwest  Level Estimated
Mon 12:59:00 AM 44.1711 6.3113 229° Southwest  Level Estimated
Mon 01:00:00 AM 44.1156 6.2233 229° Southwest  Level Estimated
Mon 01:01:00 AM 44.0600 6.1354 229° Southwest  Level Estimated
Mon 01:02:00 AM 44.0043 6.0477 229° Southwest  Level Estimated
Mon 01:03:00 AM 43.9485 5.9602 229° Southwest  Level Estimated
Mon 01:04:00 AM 43.8927 5.8728 228° Southwest  Level Estimated
Mon 01:05:00 AM 43.8368 5.7856 228° Southwest  Level Estimated
Mon 01:06:00 AM 43.7809 5.6986 228° Southwest  Level Estimated
Mon 01:07:00 AM 43.7249 5.6117 228° Southwest  Level Estimated
Mon 01:08:00 AM 43.6688 5.5250 228° Southwest  Level Estimated
Mon 01:09:00 AM 43.6126 5.4384 228° Southwest  Level Estimated
Mon 01:10:00 AM 43.5564 5.3520 228° Southwest  Level Estimated
Mon 01:11:00 AM 43.5001 5.2658 228° Southwest  Level Estimated
Mon 01:12:00 AM 43.4438 5.1797 228° Southwest  Level Estimated
Mon 01:13:00 AM 43.3874 5.0938 228° Southwest  Level Estimated
Mon 01:14:00 AM 43.3309 5.0081 228° Southwest  Level Estimated
Mon 01:15:00 AM 43.2744 4.9225 228° Southwest  Level Estimated
Mon 01:16:00 AM 43.2178 4.8371 228° Southwest  Level Estimated
Mon 01:17:00 AM 43.1611 4.7518 228° Southwest  Level Estimated
Mon 01:18:00 AM 43.1044 4.6667 228° Southwest  Level Estimated
Mon 01:19:00 AM 43.0476 4.5817 228° Southwest  Level Estimated
Mon 01:20:00 AM 42.9908 4.4969 228° Southwest  Level Estimated
Mon 01:21:00 AM 42.9339 4.4123 227° Southwest  Level Estimated
Mon 01:22:00 AM 42.8769 4.3278 227° Southwest  Level Estimated
Mon 01:23:00 AM 42.8199 4.2435 227° Southwest  Level Estimated
Mon 01:24:00 AM 42.7627 4.1593 227° Southwest  Level Estimated
Mon 01:25:00 AM 42.7056 4.0753 227° Southwest  Level Estimated
Mon 01:26:00 AM 42.6484 3.9914 227° Southwest  Level Estimated
Mon 01:27:00 AM 42.5911 3.9077 227° Southwest  Level Estimated
Mon 01:28:00 AM 42.5337 3.8241 227° Southwest  Level Estimated
Mon 01:29:00 AM 42.4763 3.7407 227° Southwest  Level Estimated
Mon 01:30:00 AM 42.4189 3.6575 227° Southwest  Level Estimated
Mon 01:31:00 AM 42.3614 3.5744 227° Southwest  Level Estimated
Mon 01:32:00 AM 42.3038 3.4915 227° Southwest  Level Estimated
Mon 01:33:00 AM 42.2490 3.4127 227° Southwest  Level Estimated
Mon 01:34:00 AM 42.1941 3.3342 227° Southwest  Level Estimated
Mon 01:35:00 AM 42.1392 3.2557 227° Southwest  Level Estimated
Mon 01:36:00 AM 42.0843 3.1774 227° Southwest  Level Estimated
Mon 01:37:00 AM 42.0293 3.0993 227° Southwest  Level Estimated
Mon 01:38:00 AM 41.9742 3.0213 227° Southwest  Level Estimated
Mon 01:39:00 AM 41.9191 2.9434 226° Southwest  Level Estimated
Mon 01:40:00 AM 41.8639 2.8656 226° Southwest  Level Estimated
Mon 01:41:00 AM 41.8087 2.7880 226° Southwest  Level Estimated
Mon 01:42:00 AM 41.7534 2.7105 226° Southwest  Level Estimated
Mon 01:43:00 AM 41.6981 2.6331 226° Southwest  Level Estimated
Mon 01:44:00 AM 41.6427 2.5559 226° Southwest  Level Estimated
Mon 01:45:00 AM 41.5873 2.4788 226° Southwest  Level Estimated
Mon 01:46:00 AM 41.5318 2.4018 226° Southwest  Level Estimated
Mon 01:47:00 AM 41.4763 2.3250 226° Southwest  Level Estimated
Mon 01:48:00 AM 41.4207 2.2483 226° Southwest  Level Estimated
Mon 01:49:00 AM 41.3651 2.1718 226° Southwest  Level Estimated
Mon 01:50:00 AM 41.3094 2.0953 226° Southwest  Level Estimated
Mon 01:51:00 AM 41.2971 2.0785 226° Southwest  Level Estimated
Mon 01:52:00 AM 41.2971 2.0785 124° Southeast  Level Estimated
Mon 01:53:00 AM 41.2971 2.0785 124° Southeast  Level Estimated
Mon 01:54:00 AM 41.2971 2.0785 124° Southeast  Level Estimated
Mon 01:55:00 AM 41.2971 2.0785 124° Southeast  Level Estimated
Mon 01:56:00 AM 41.2971 2.0785 124° Southeast  Level Estimated
Mon 01:57:00 AM 41.2971 2.0785 124° Southeast  Level Estimated
Mon 01:58:00 AM 41.2971 2.0785 124° Southeast  Level Estimated
Mon 01:59:00 AM 41.2971 2.0785 124° Southeast  Level Estimated
Mon 02:00:00 AM 41.2971 2.0785 124° Southeast  Level Estimated
Mon 02:01:00 AM 41.2971 2.0785 124° Southeast  Level Estimated
Mon 02:02:00 AM 41.2971 2.0785 124° Southeast  Level Estimated
Mon 02:03:00 AM 41.2971 2.0785 124° Southeast  Level Estimated
Mon 02:04:00 AM 41.2971 2.0785 124° Southeast  Level Estimated
Mon 02:05:00 AM 41.2971 2.0785 124° Southeast  Level Estimated
Mon 02:06:00 AM 41.2971 2.0785 124° Southeast  Level Estimated
Mon 02:07:00 AM 41.2971 2.0785 124° Southeast  Level Estimated

Login

Don't have an account? Register now (free) for customized features, flight alerts, and more!